Delta Virtual Airport Information Service

Alor Setar Sultan Abdul Halim Airport

ICAO: WMKA Country: Malaysia
Latitude: 6.18967 Longitude: 100.398
Latest Arrival : DAL7556201 (WBGG-WMKA) Latest Departure : DAL7556201 (WMKA-VDSR)


WX CaptureLIVE
Data provided by noaa.gov | Fetched at 09:58:51

METAR : WMKA 231500Z VRB01KT 8000 FEW010 24/24 Q1011

TAF : WMKA 231100Z 2312/2412 VRB03KT 8000 FEW010 PROB30 TEMPO 2312/2314 8000 -TSRA FEW010 FEW017CB BECMG 2400/2402 04006KT 9000 FEW017CB TEMPO 2404/2410 5000 TSRA FEW010 FEW017CB


Runway Data for WMKA
Data provided by openaviationdata.com

Runway ID Mag Var Hdg Length Elevation Surface ILS Freq ILS Id ILS Slope
4 0 43° 6454 ft 15 ft Tarmac -- -- --
22 0 223° 6454 ft 15 ft Tarmac -- -- --

Alor Setar Sultan Abdul Halim Airport, Malaysia
Use only for reference purposes



Not for navigational purposes.